Time;durP1;ratioP1;P1;durP2;ratioP2;P2;SDS_P1;SDS_P2;PMS_P1;PMS_P2;Temp;Humidity;BMP_temperature;BMP_pressure;BME280_temperature;BME280_humidity;BME280_pressure;Samples;Min_cycle;Max_cycle;Signal;HPM_P1;HPM_P2
2022/02/13 00:01:59;;;;;;;3.25;1.92;;;18.90;58.90;;;;;;5030010;28;20254;-58
2022/02/13 00:04:30;;;;;;;3.00;1.90;;;19.00;59.00;;;;;;5029960;28;20196;-57
2022/02/13 00:07:01;;;;;;;3.58;2.10;;;19.00;59.00;;;;;;5029905;28;20216;-57
2022/02/13 00:09:31;;;;;;;2.75;1.85;;;19.00;59.00;;;;;;5029111;28;20208;-57
2022/02/13 00:12:08;;;;;;;2.70;2.13;;;19.00;59.00;;;;;;5029489;28;20656;-58
2022/02/13 00:14:38;;;;;;;4.15;2.58;;;19.00;59.00;;;;;;5029312;28;20198;-58
2022/02/13 00:17:10;;;;;;;4.90;2.40;;;19.00;59.00;;;;;;5030881;28;20219;-57
2022/02/13 00:19:40;;;;;;;2.97;1.80;;;19.00;59.10;;;;;;5030046;28;20220;-57
2022/02/13 00:22:11;;;;;;;3.15;1.83;;;19.00;58.90;;;;;;5029500;28;20197;-57
2022/02/13 00:24:42;;;;;;;3.30;2.00;;;19.00;59.00;;;;;;5029689;28;20257;-56
2022/02/13 00:27:14;;;;;;;2.70;2.10;;;19.00;59.00;;;;;;5029430;28;20208;-57
2022/02/13 00:29:45;;;;;;;3.35;2.05;;;19.00;58.90;;;;;;5030249;28;20758;-57
2022/02/13 00:32:16;;;;;;;4.38;2.30;;;18.90;58.90;;;;;;5030888;28;20262;-56
2022/02/13 00:34:46;;;;;;;3.63;2.13;;;19.00;59.00;;;;;;5029641;28;20196;-57
2022/02/13 00:37:17;;;;;;;5.75;2.38;;;19.00;58.90;;;;;;5029839;28;20216;-56
2022/02/13 00:39:48;;;;;;;2.50;2.10;;;19.00;59.00;;;;;;5026895;28;20231;-57
2022/02/13 00:42:20;;;;;;;4.28;2.28;;;19.00;59.00;;;;;;5029847;28;20200;-58
2022/02/13 00:44:51;;;;;;;3.38;2.08;;;19.00;59.00;;;;;;5029552;28;20207;-58
2022/02/13 00:47:21;;;;;;;4.38;1.95;;;19.00;59.00;;;;;;5030473;28;20313;-59
2022/02/13 00:49:52;;;;;;;3.50;2.10;;;19.00;59.00;;;;;;5029511;28;20258;-54
2022/02/13 00:52:23;;;;;;;2.95;2.03;;;19.00;59.10;;;;;;5027450;28;20195;-57
2022/02/13 00:54:53;;;;;;;2.92;2.08;;;19.00;59.50;;;;;;5027207;28;20287;-56
2022/02/13 00:57:27;;;;;;;4.45;2.53;;;19.10;59.80;;;;;;5029303;28;20212;-57
2022/02/13 00:59:57;;;;;;;2.97;2.08;;;19.10;59.80;;;;;;5028387;28;20274;-58
2022/02/13 01:02:28;;;;;;;3.60;2.47;;;19.10;59.70;;;;;;5027475;28;20192;-57
2022/02/13 01:04:58;;;;;;;4.00;2.30;;;19.10;59.80;;;;;;5029340;28;20226;-56
2022/02/13 01:07:29;;;;;;;6.70;2.22;;;19.10;60.00;;;;;;5027894;28;20216;-58
2022/02/13 01:10:00;;;;;;;4.65;2.20;;;19.10;60.30;;;;;;5029175;28;20250;-51
2022/02/13 01:12:32;;;;;;;3.88;2.00;;;19.20;60.30;;;;;;5027955;28;20212;-55
2022/02/13 01:15:03;;;;;;;3.35;2.22;;;19.20;60.50;;;;;;5029094;28;20537;-57
2022/02/13 01:17:34;;;;;;;3.78;2.35;;;19.20;60.60;;;;;;5029737;28;20220;-57
2022/02/13 01:20:05;;;;;;;3.13;2.10;;;19.20;60.60;;;;;;5028986;28;20672;-53
2022/02/13 01:22:38;;;;;;;2.83;2.15;;;19.20;60.70;;;;;;5028384;28;20200;-58
2022/02/13 01:25:10;;;;;;;7.13;2.72;;;19.30;60.70;;;;;;5028356;28;20196;-60
2022/02/13 01:27:42;;;;;;;4.03;2.50;;;19.30;60.80;;;;;;5028651;28;20246;-60
2022/02/13 01:30:13;;;;;;;6.55;2.78;;;19.30;61.50;;;;;;5027548;28;20204;-59
2022/02/13 01:32:44;;;;;;;8.20;2.72;;;19.30;60.60;;;;;;5028351;28;20253;-59
2022/02/13 01:35:15;;;;;;;3.97;2.20;;;19.30;60.70;;;;;;5027316;28;20216;-59
2022/02/13 01:37:45;;;;;;;4.18;2.40;;;19.30;60.60;;;;;;5027247;28;20753;-59
2022/02/13 01:40:16;;;;;;;3.80;2.42;;;19.40;60.60;;;;;;5027828;28;20227;-59
2022/02/13 01:42:49;;;;;;;3.95;2.10;;;19.40;60.50;;;;;;5028219;28;20204;-59
2022/02/13 01:45:19;;;;;;;4.30;2.55;;;19.40;60.40;;;;;;5027756;28;20192;-59
2022/02/13 01:47:50;;;;;;;4.30;2.20;;;19.40;60.30;;;;;;5028323;28;20731;-59
2022/02/13 01:50:20;;;;;;;5.32;2.80;;;19.40;60.30;;;;;;5028022;28;20262;-60
2022/02/13 01:52:52;;;;;;;2.90;2.03;;;19.40;60.20;;;;;;5027559;28;20254;-59
2022/02/13 01:55:23;;;;;;;3.53;2.15;;;19.50;60.30;;;;;;5028145;28;20222;-59
2022/02/13 01:57:59;;;;;;;6.72;2.58;;;19.50;60.30;;;;;;5027950;28;21132;-59
2022/02/13 02:00:29;;;;;;;5.35;2.55;;;19.50;60.30;;;;;;5028173;28;20199;-60
2022/02/13 02:03:01;;;;;;;6.28;2.53;;;19.50;60.30;;;;;;5027976;28;20196;-59
2022/02/13 02:05:33;;;;;;;5.18;2.50;;;19.50;60.30;;;;;;5028238;28;20200;-56
2022/02/13 02:08:03;;;;;;;4.47;2.25;;;19.50;60.50;;;;;;5027634;28;20214;-59
2022/02/13 02:10:37;;;;;;;4.80;2.38;;;19.50;60.50;;;;;;5027345;28;20257;-60
2022/02/13 02:13:10;;;;;;;4.40;2.22;;;19.50;60.40;;;;;;5029071;28;20723;-61
2022/02/13 02:15:41;;;;;;;3.25;2.25;;;19.50;60.40;;;;;;5033135;28;20262;-59
2022/02/13 02:18:12;;;;;;;3.83;2.15;;;19.50;60.20;;;;;;5033382;28;20216;-60
2022/02/13 02:20:43;;;;;;;7.60;3.05;;;19.60;60.20;;;;;;5032078;28;20196;-60
2022/02/13 02:23:15;;;;;;;5.90;3.05;;;19.60;60.30;;;;;;5032273;28;20192;-59
2022/02/13 02:25:46;;;;;;;8.00;2.80;;;19.60;60.20;;;;;;5031175;28;20250;-59
2022/02/13 02:28:17;;;;;;;6.53;2.63;;;19.60;60.10;;;;;;5032119;28;20242;-60
2022/02/13 02:30:47;;;;;;;6.65;2.47;;;19.60;60.10;;;;;;5031581;28;20192;-58
2022/02/13 02:33:19;;;;;;;6.65;3.00;;;19.60;60.10;;;;;;5030122;28;20195;-60
2022/02/13 02:35:50;;;;;;;4.82;2.55;;;19.60;60.00;;;;;;5031872;28;20203;-58
2022/02/13 02:38:23;;;;;;;5.85;2.78;;;19.60;60.00;;;;;;5029926;28;20215;-61
2022/02/13 02:40:53;;;;;;;7.60;2.83;;;19.60;60.00;;;;;;5031322;28;20200;-59
2022/02/13 02:43:24;;;;;;;6.22;2.92;;;19.60;60.10;;;;;;5031673;28;20275;-60
2022/02/13 02:45:55;;;;;;;4.63;2.47;;;19.60;60.10;;;;;;5030797;28;20651;-59
2022/02/13 02:48:25;;;;;;;4.68;2.75;;;19.60;60.10;;;;;;5030967;28;20200;-60
2022/02/13 02:50:56;;;;;;;6.15;2.30;;;19.60;60.10;;;;;;5030372;28;20300;-59
2022/02/13 02:53:29;;;;;;;7.30;3.00;;;19.60;60.00;;;;;;5030727;28;20215;-59
2022/02/13 02:56:00;;;;;;;5.50;2.83;;;19.60;60.10;;;;;;5031304;28;20299;-59
2022/02/13 02:58:31;;;;;;;8.10;3.10;;;19.60;60.00;;;;;;5030611;28;20254;-60
2022/02/13 03:01:01;;;;;;;4.00;2.35;;;19.60;59.90;;;;;;5031354;28;20192;-60
2022/02/13 03:03:33;;;;;;;4.53;2.80;;;19.60;59.90;;;;;;5030892;28;20196;-60
2022/02/13 03:06:04;;;;;;;5.45;2.88;;;19.60;59.80;;;;;;5031491;28;20216;-60
2022/02/13 03:08:36;;;;;;;5.88;3.28;;;19.60;59.80;;;;;;5030836;28;20200;-60
2022/02/13 03:11:09;;;;;;;6.47;3.30;;;19.60;59.80;;;;;;5030853;28;20706;-59
2022/02/13 03:13:40;;;;;;;6.75;3.25;;;19.60;59.80;;;;;;5031435;28;20441;-60
2022/02/13 03:16:11;;;;;;;5.32;3.05;;;19.60;59.80;;;;;;5031996;28;20212;-60
2022/02/13 03:18:42;;;;;;;4.50;2.88;;;19.50;59.70;;;;;;5031604;28;20204;-62
2022/02/13 03:21:12;;;;;;;5.32;3.00;;;19.60;59.80;;;;;;5030866;28;20832;-61
2022/02/13 03:23:45;;;;;;;5.75;3.00;;;19.60;59.70;;;;;;5031023;28;20204;-61
2022/02/13 03:26:15;;;;;;;5.40;3.10;;;19.50;59.70;;;;;;5030592;28;20223;-62
2022/02/13 03:28:46;;;;;;;5.35;2.80;;;19.50;59.60;;;;;;5031311;28;20267;-62
2022/02/13 03:31:17;;;;;;;6.05;2.80;;;19.50;59.60;;;;;;5028845;28;20203;-61
2022/02/13 03:33:47;;;;;;;6.13;3.42;;;19.50;59.60;;;;;;5031389;28;20196;-61
2022/02/13 03:36:19;;;;;;;5.45;3.17;;;19.50;59.60;;;;;;5030925;28;20208;-61
2022/02/13 03:38:52;;;;;;;4.63;2.80;;;19.50;59.50;;;;;;5030408;28;20220;-60
2022/02/13 03:41:22;;;;;;;5.75;2.88;;;19.50;59.50;;;;;;5029963;28;20208;-61
2022/02/13 03:43:53;;;;;;;6.35;3.00;;;19.50;59.50;;;;;;5029702;28;20200;-63
2022/02/13 03:46:23;;;;;;;6.53;3.30;;;19.50;59.50;;;;;;5030243;28;20216;-60
2022/02/13 03:48:54;;;;;;;4.50;2.88;;;19.50;59.50;;;;;;5029631;28;20196;-60
2022/02/13 03:51:25;;;;;;;3.47;2.30;;;19.50;59.50;;;;;;5030687;28;20211;-60
2022/02/13 03:53:57;;;;;;;4.88;2.65;;;19.50;59.50;;;;;;5030244;28;20193;-60
2022/02/13 03:56:28;;;;;;;5.30;2.80;;;19.50;59.70;;;;;;5030436;28;20216;-60
2022/02/13 03:58:58;;;;;;;7.05;3.05;;;19.50;59.50;;;;;;5030536;28;20204;-59
2022/02/13 04:01:30;;;;;;;7.38;3.28;;;19.50;59.50;;;;;;5030884;28;20626;-62
2022/02/13 04:04:00;;;;;;;5.72;3.58;;;19.50;59.60;;;;;;5030547;28;20701;-63
2022/02/13 04:06:31;;;;;;;4.28;2.70;;;19.40;59.50;;;;;;5030595;28;20212;-61
2022/02/13 04:09:04;;;;;;;6.03;3.20;;;19.50;59.50;;;;;;5029820;28;20262;-62
2022/02/13 04:11:35;;;;;;;4.38;2.80;;;19.40;59.50;;;;;;5029841;28;20192;-61
2022/02/13 04:14:08;;;;;;;5.30;2.90;;;19.50;59.50;;;;;;5029847;28;20200;-60
2022/02/13 04:16:39;;;;;;;5.47;3.03;;;19.50;59.50;;;;;;5030511;28;20691;-61
2022/02/13 04:19:10;;;;;;;6.35;3.05;;;19.40;59.40;;;;;;5029749;28;20227;-61
2022/02/13 04:21:40;;;;;;;3.65;2.60;;;19.40;59.40;;;;;;5029515;28;20201;-61
2022/02/13 04:24:13;;;;;;;5.28;2.78;;;19.40;59.40;;;;;;5029140;28;20207;-61
2022/02/13 04:26:43;;;;;;;5.32;3.03;;;19.40;59.40;;;;;;5028998;28;20238;-61
2022/02/13 04:29:14;;;;;;;4.95;2.83;;;19.40;59.40;;;;;;5029370;28;20200;-61
2022/02/13 04:31:45;;;;;;;4.85;2.60;;;19.40;59.40;;;;;;5029198;28;20200;-61
2022/02/13 04:34:15;;;;;;;5.90;2.80;;;19.40;59.40;;;;;;5029693;28;20278;-61
2022/02/13 04:36:46;;;;;;;4.18;2.88;;;19.40;59.40;;;;;;5031860;28;20216;-60
2022/02/13 04:39:19;;;;;;;3.72;2.63;;;19.40;59.40;;;;;;5031004;28;20208;-61
2022/02/13 04:41:49;;;;;;;4.10;2.60;;;19.40;59.40;;;;;;5030436;28;20656;-61
2022/02/13 04:44:20;;;;;;;3.72;2.50;;;19.30;59.30;;;;;;5030115;28;20188;-60
2022/02/13 04:46:51;;;;;;;4.15;3.05;;;19.40;59.40;;;;;;5028153;28;20685;-61
2022/02/13 04:49:21;;;;;;;5.05;2.63;;;19.30;59.30;;;;;;5028937;28;20195;-62
2022/02/13 04:51:52;;;;;;;7.15;3.20;;;19.30;59.30;;;;;;5030210;28;20189;-60
2022/02/13 04:54:25;;;;;;;4.53;2.72;;;19.30;59.30;;;;;;5029389;28;20664;-60
2022/02/13 04:56:55;;;;;;;4.03;2.50;;;19.30;59.30;;;;;;5028774;28;20269;-62
2022/02/13 04:59:27;;;;;;;4.70;2.47;;;19.30;59.30;;;;;;5029647;28;20228;-61
2022/02/13 05:01:58;;;;;;;4.38;2.50;;;19.30;59.30;;;;;;5028826;28;20268;-61
2022/02/13 05:04:29;;;;;;;4.78;2.85;;;19.30;59.30;;;;;;5029939;28;20216;-61
2022/02/13 05:06:59;;;;;;;4.75;2.50;;;19.30;59.30;;;;;;5028672;28;20220;-63
2022/02/13 05:09:32;;;;;;;3.92;2.40;;;19.30;59.30;;;;;;5035705;28;20207;-62
2022/02/13 05:12:06;;;;;;;4.47;2.75;;;19.30;59.30;;;;;;5033941;28;20602;-61
2022/02/13 05:14:36;;;;;;;3.58;2.30;;;19.30;59.30;;;;;;5029671;28;20250;-63
2022/02/13 05:17:07;;;;;;;5.63;2.60;;;19.30;59.30;;;;;;5045337;28;20219;-61
2022/02/13 05:19:38;;;;;;;4.15;2.42;;;19.30;59.30;;;;;;5049270;28;20215;-63
2022/02/13 05:22:09;;;;;;;4.43;2.30;;;19.30;59.30;;;;;;5049139;28;20577;-61
2022/02/13 05:24:41;;;;;;;3.63;2.40;;;19.20;59.20;;;;;;5048297;28;20602;-61
2022/02/13 05:27:12;;;;;;;3.22;2.28;;;19.30;59.30;;;;;;5030250;28;20216;-60
2022/02/13 05:29:42;;;;;;;3.67;2.80;;;19.30;59.30;;;;;;5030422;28;20598;-61
2022/02/13 05:32:13;;;;;;;3.90;2.38;;;19.20;59.30;;;;;;5028648;28;20196;-63
2022/02/13 05:34:44;;;;;;;4.45;2.63;;;19.20;59.30;;;;;;5029882;28;21036;-63
2022/02/13 05:37:14;;;;;;;4.15;2.60;;;19.20;59.30;;;;;;5025786;28;20216;-62
2022/02/13 05:39:47;;;;;;;3.90;2.78;;;19.20;59.20;;;;;;5011110;28;20639;-63
2022/02/13 05:42:17;;;;;;;3.22;2.63;;;19.20;59.30;;;;;;5030435;28;20231;-62
2022/02/13 05:44:48;;;;;;;2.78;2.30;;;19.20;59.20;;;;;;5030096;28;20203;-61
2022/02/13 05:47:19;;;;;;;3.90;2.53;;;19.20;59.30;;;;;;5045887;28;20224;-61
2022/02/13 05:49:49;;;;;;;3.47;3.00;;;19.20;59.20;;;;;;5050086;28;20203;-62
2022/02/13 05:52:20;;;;;;;3.97;2.22;;;19.20;59.30;;;;;;5049721;28;20249;-61
2022/02/13 05:54:52;;;;;;;3.13;2.38;;;19.20;59.30;;;;;;5047486;28;20253;-63
2022/02/13 05:57:23;;;;;;;3.30;2.50;;;19.20;59.30;;;;;;5029486;28;20215;-64
2022/02/13 05:59:53;;;;;;;2.50;2.13;;;19.20;59.30;;;;;;5029502;28;20281;-62
2022/02/13 06:02:24;;;;;;;3.67;2.47;;;19.20;59.30;;;;;;5029807;28;20654;-57
2022/02/13 06:04:55;;;;;;;4.10;2.33;;;19.20;59.30;;;;;;5029851;28;20196;-53
2022/02/13 06:07:25;;;;;;;4.43;2.60;;;19.10;59.20;;;;;;5029558;28;20220;-54
2022/02/13 06:09:58;;;;;;;3.72;2.70;;;19.10;59.20;;;;;;5028563;28;20238;-54
2022/02/13 06:12:28;;;;;;;3.05;2.25;;;19.10;59.30;;;;;;5029157;28;20202;-54
2022/02/13 06:14:59;;;;;;;4.65;2.42;;;19.20;59.30;;;;;;5029408;28;20289;-54
2022/02/13 06:17:29;;;;;;;3.58;2.42;;;19.20;59.30;;;;;;5047915;28;20227;-54
2022/02/13 06:20:00;;;;;;;4.03;2.47;;;19.20;59.30;;;;;;5049658;28;20691;-53
2022/02/13 06:22:30;;;;;;;3.80;2.45;;;19.20;59.30;;;;;;5049660;28;20195;-54
2022/02/13 06:25:06;;;;;;;4.43;2.40;;;19.20;59.30;;;;;;5047696;28;20217;-53
2022/02/13 06:27:39;;;;;;;5.57;2.60;;;19.10;59.20;;;;;;5029609;28;20248;-55
2022/02/13 06:30:10;;;;;;;3.45;2.30;;;19.10;59.20;;;;;;5029156;28;20203;-56
2022/02/13 06:32:41;;;;;;;3.70;2.15;;;19.10;59.20;;;;;;5029200;28;20196;-55
2022/02/13 06:35:11;;;;;;;4.13;2.30;;;19.10;59.80;;;;;;5029145;28;20238;-53
2022/02/13 06:37:42;;;;;;;4.97;2.88;;;19.10;59.50;;;;;;5028912;28;20258;-56
2022/02/13 06:40:15;;;;;;;4.65;2.70;;;19.20;59.80;;;;;;5028692;28;20224;-55
2022/02/13 06:42:46;;;;;;;3.22;2.78;;;19.10;59.70;;;;;;5029085;28;20196;-54
2022/02/13 06:45:17;;;;;;;4.93;3.00;;;19.20;59.70;;;;;;5013845;28;20657;-54
2022/02/13 06:47:47;;;;;;;3.83;2.40;;;19.10;60.00;;;;;;5009173;28;20692;-55
2022/02/13 06:50:18;;;;;;;4.50;2.50;;;19.10;59.50;;;;;;5008949;28;20758;-54
2022/02/13 06:52:49;;;;;;;4.47;2.47;;;19.10;59.50;;;;;;5008920;28;20197;-54
2022/02/13 06:55:21;;;;;;;4.22;2.60;;;19.10;59.50;;;;;;5010586;28;20407;-54
2022/02/13 06:57:52;;;;;;;3.08;2.00;;;19.10;59.50;;;;;;5022728;28;20217;-56
2022/02/13 07:00:23;;;;;;;3.65;2.50;;;19.10;59.50;;;;;;5012135;28;20225;-57
2022/02/13 07:02:54;;;;;;;3.20;2.15;;;19.10;59.50;;;;;;5013005;28;20200;-54
2022/02/13 07:05:25;;;;;;;3.60;2.47;;;19.10;59.50;;;;;;5013202;28;20201;-56
2022/02/13 07:07:55;;;;;;;2.83;2.25;;;19.10;59.40;;;;;;5012847;28;20224;-54
2022/02/13 07:10:28;;;;;;;5.20;2.67;;;19.10;59.40;;;;;;5015630;28;20660;-54
2022/02/13 07:12:58;;;;;;;3.83;2.70;;;19.10;59.40;;;;;;5032559;28;20266;-56
2022/02/13 07:15:30;;;;;;;3.28;2.20;;;19.10;59.40;;;;;;5034303;28;20273;-56
2022/02/13 07:18:01;;;;;;;5.18;2.42;;;19.10;59.40;;;;;;5053761;28;20220;-54
2022/02/13 07:20:32;;;;;;;3.58;2.40;;;19.00;59.30;;;;;;5053198;28;20238;-54
2022/02/13 07:23:02;;;;;;;2.67;1.98;;;19.10;59.40;;;;;;5053116;28;20203;-54
2022/02/13 07:25:38;;;;;;;3.13;2.22;;;19.00;59.30;;;;;;5049877;28;20192;-51
2022/02/13 07:30:52;;;;;;;3.83;2.40;;;19.10;59.40;;;;;;5031775;28;20203;-56
2022/02/13 07:33:22;;;;;;;6.00;2.70;;;19.00;59.30;;;;;;5032572;28;20204;-56
2022/02/13 07:35:53;;;;;;;4.35;2.53;;;19.00;59.30;;;;;;5028008;28;20204;-57
2022/02/13 07:38:23;;;;;;;3.72;2.47;;;19.00;59.40;;;;;;5024852;28;20204;-54
2022/02/13 07:40:56;;;;;;;2.83;2.20;;;19.00;59.40;;;;;;5025669;28;20255;-54
2022/02/13 07:43:26;;;;;;;4.05;2.38;;;19.00;59.40;;;;;;5027466;28;20200;-57
2022/02/13 07:45:58;;;;;;;3.45;2.50;;;19.00;59.40;;;;;;5026661;28;20204;-56
2022/02/13 07:48:29;;;;;;;3.55;2.60;;;19.00;59.40;;;;;;5027284;28;20220;-53
2022/02/13 07:50:59;;;;;;;3.53;2.60;;;19.00;59.40;;;;;;5028586;28;20250;-58
2022/02/13 07:53:30;;;;;;;2.72;2.30;;;19.00;59.40;;;;;;5030391;28;20208;-51
2022/02/13 07:56:03;;;;;;;3.95;2.08;;;19.00;59.40;;;;;;5027103;28;20652;-53
2022/02/13 07:58:34;;;;;;;3.60;2.25;;;18.90;59.30;;;;;;5027644;28;20228;-54
2022/02/13 08:01:05;;;;;;;2.97;2.10;;;19.00;59.40;;;;;;5029722;28;20230;-54
2022/02/13 08:03:37;;;;;;;3.45;2.35;;;18.90;59.30;;;;;;5029116;28;20278;-53
2022/02/13 08:06:07;;;;;;;3.22;1.98;;;19.00;59.40;;;;;;5029825;28;20201;-55
2022/02/13 08:08:38;;;;;;;3.30;2.35;;;18.90;59.50;;;;;;5029771;28;20204;-53
2022/02/13 08:11:11;;;;;;;3.97;2.40;;;18.90;59.50;;;;;;5029302;28;20652;-57
2022/02/13 08:13:41;;;;;;;2.92;2.20;;;19.00;59.50;;;;;;5029547;28;20192;-55
2022/02/13 08:16:12;;;;;;;4.53;2.20;;;18.90;59.50;;;;;;5030689;28;20206;-53
2022/02/13 08:18:43;;;;;;;5.60;2.65;;;19.00;59.50;;;;;;5029312;28;20200;-55
2022/02/13 08:21:14;;;;;;;3.13;2.25;;;19.00;59.50;;;;;;5030024;28;20286;-56
2022/02/13 08:23:44;;;;;;;4.40;1.98;;;19.00;59.40;;;;;;5029296;28;20204;-50
2022/02/13 08:26:19;;;;;;;3.20;1.98;;;19.00;59.50;;;;;;5028593;28;20267;-56
2022/02/13 08:28:51;;;;;;;3.20;2.15;;;18.90;59.40;;;;;;5028642;28;20196;-55
2022/02/13 08:31:22;;;;;;;5.15;1.98;;;18.90;59.40;;;;;;5029891;28;20203;-58
2022/02/13 08:33:52;;;;;;;2.72;2.00;;;18.90;59.40;;;;;;5029893;28;20196;-55
2022/02/13 08:36:23;;;;;;;3.10;2.08;;;18.90;59.40;;;;;;5027877;28;20220;-54
2022/02/13 08:38:54;;;;;;;3.30;2.10;;;18.90;59.40;;;;;;5028460;28;20192;-55
2022/02/13 08:41:26;;;;;;;3.45;2.30;;;18.90;59.40;;;;;;5029252;28;20219;-55
2022/02/13 08:43:57;;;;;;;3.15;1.90;;;18.90;59.40;;;;;;5029134;28;20555;-56
2022/02/13 08:46:28;;;;;;;3.05;2.25;;;18.90;59.40;;;;;;5029780;28;20749;-57
2022/02/13 08:48:58;;;;;;;3.25;2.10;;;18.90;59.40;;;;;;5028522;28;20234;-54
2022/02/13 08:51:29;;;;;;;3.97;2.67;;;18.90;59.40;;;;;;5029030;28;20266;-55
2022/02/13 08:53:59;;;;;;;3.28;2.08;;;18.90;59.40;;;;;;5028535;28;20250;-55
2022/02/13 08:56:32;;;;;;;4.20;2.40;;;18.90;59.40;;;;;;5028790;28;20227;-55
2022/02/13 08:59:03;;;;;;;3.90;2.30;;;18.90;59.40;;;;;;5029101;28;20607;-53
2022/02/13 09:01:33;;;;;;;3.92;2.15;;;18.90;59.40;;;;;;5029887;28;20595;-53
2022/02/13 09:04:04;;;;;;;3.30;2.40;;;18.90;59.50;;;;;;5028811;28;20206;-54
2022/02/13 09:06:34;;;;;;;2.90;2.05;;;18.80;59.40;;;;;;5029238;28;20212;-54
2022/02/13 09:09:06;;;;;;;3.38;2.40;;;18.90;59.40;;;;;;5028297;28;20197;-55
2022/02/13 09:11:39;;;;;;;4.05;2.22;;;18.90;59.40;;;;;;5028512;28;20291;-55
2022/02/13 09:14:09;;;;;;;3.58;2.10;;;18.90;59.40;;;;;;5028439;28;20200;-55
2022/02/13 09:16:40;;;;;;;3.50;2.13;;;18.80;59.40;;;;;;5029723;28;20259;-58
2022/02/13 09:19:11;;;;;;;5.60;2.53;;;18.80;59.40;;;;;;5029136;28;20192;-55
2022/02/13 09:21:41;;;;;;;4.28;2.22;;;18.80;59.30;;;;;;5028451;28;20224;-53
2022/02/13 09:24:12;;;;;;;3.30;2.20;;;18.80;59.40;;;;;;5028063;28;20204;-53
2022/02/13 09:26:44;;;;;;;3.47;2.30;;;18.80;59.40;;;;;;5027851;28;20220;-54
2022/02/13 09:29:15;;;;;;;3.72;2.08;;;18.80;59.40;;;;;;5025227;28;20196;-52
2022/02/13 09:31:46;;;;;;;4.95;2.15;;;18.80;59.50;;;;;;5012220;28;20196;-53
2022/02/13 09:34:18;;;;;;;5.18;1.92;;;18.80;59.40;;;;;;5011872;28;20615;-52
2022/02/13 09:36:49;;;;;;;4.38;2.15;;;18.80;59.40;;;;;;5009928;28;20259;-54
2022/02/13 09:39:20;;;;;;;4.72;2.25;;;18.80;59.40;;;;;;5010202;28;20243;-54
2022/02/13 09:41:52;;;;;;;4.10;2.25;;;18.80;59.40;;;;;;5013002;28;20763;-53
2022/02/13 09:44:23;;;;;;;4.13;2.35;;;18.80;59.40;;;;;;5011144;28;20196;-55
2022/02/13 09:46:54;;;;;;;4.72;2.28;;;18.80;59.40;;;;;;5042231;28;20219;-55
2022/02/13 09:49:25;;;;;;;5.18;2.47;;;18.80;60.00;;;;;;5049664;28;20269;-54
2022/02/13 09:51:56;;;;;;;2.67;1.90;;;18.80;59.40;;;;;;5049728;28;20195;-56
2022/02/13 09:54:26;;;;;;;3.83;2.40;;;18.80;59.40;;;;;;5049831;28;20206;-56
2022/02/13 09:57:59;;;;;;;3.58;2.20;;;18.70;59.30;;;;;;5049571;28;20679;-53
2022/02/13 09:59:58;;;;;;;4.55;2.40;;;18.80;59.40;;;;;;5014234;28;20192;-50
2022/02/13 10:02:39;;;;;;;3.40;2.22;;;18.80;59.40;;;;;;5029871;28;20227;-55
2022/02/13 10:05:11;;;;;;;4.53;2.20;;;18.80;59.40;;;;;;5029844;28;20200;-56
2022/02/13 10:07:42;;;;;;;3.50;1.83;;;18.80;59.30;;;;;;5029227;28;20216;-54
2022/02/13 10:10:14;;;;;;;3.35;2.13;;;18.80;59.40;;;;;;5029279;28;20614;-51
2022/02/13 10:12:48;;;;;;;3.30;2.10;;;18.70;59.30;;;;;;5029215;28;20258;-55
2022/02/13 10:15:33;;;;;;;4.28;2.33;;;18.70;59.30;;;;;;5028292;28;20188;-58
2022/02/13 10:18:09;;;;;;;4.50;2.30;;;18.70;59.30;;;;;;5848665;22;20199;-43
2022/02/13 10:20:47;;;;;;;4.50;2.35;;;18.70;59.30;;;;;;5029258;28;20602;-48
2022/02/13 10:23:27;;;;;;;3.90;1.98;;;18.70;59.30;;;;;;5029148;28;20501;-46
2022/02/13 10:26:01;;;;;;;4.00;2.08;;;18.70;59.30;;;;;;5028464;28;20604;-48
2022/02/13 10:28:40;;;;;;;2.83;1.80;;;18.70;59.30;;;;;;5009674;28;20593;-49
2022/02/13 10:31:14;;;;;;;3.88;2.33;;;18.70;59.30;;;;;;5005201;28;20323;-45
2022/02/13 10:34:01;;;;;;;3.33;2.10;;;18.70;59.30;;;;;;5005083;28;20281;-42
2022/02/13 10:36:41;;;;;;;2.45;1.88;;;18.70;59.30;;;;;;5013588;28;20331;-43
2022/02/13 10:39:27;;;;;;;3.65;2.30;;;18.70;59.30;;;;;;5014434;28;20603;-43
2022/02/13 10:42:04;;;;;;;4.07;2.10;;;18.70;59.30;;;;;;5013854;28;20685;-47
2022/02/13 10:44:43;;;;;;;3.08;1.90;;;18.70;59.30;;;;;;5014256;28;20250;-53
2022/02/13 10:47:26;;;;;;;5.10;2.10;;;18.70;59.30;;;;;;5019380;28;20244;-53
2022/02/13 10:49:57;;;;;;;3.28;2.00;;;18.70;59.30;;;;;;5004850;28;20228;-52
2022/02/13 10:52:29;;;;;;;3.72;2.28;;;18.70;59.30;;;;;;5012985;28;20201;-42
2022/02/13 10:55:02;;;;;;;3.10;1.80;;;18.70;59.30;;;;;;5012979;28;20331;-51
2022/02/13 10:57:32;;;;;;;3.05;1.77;;;18.60;59.30;;;;;;5012760;28;21031;-44
2022/02/13 11:00:05;;;;;;;4.13;1.92;;;18.60;59.30;;;;;;5013247;28;20719;-52
2022/02/13 11:02:37;;;;;;;2.63;1.70;;;18.70;59.30;;;;;;5013422;28;20236;-56
2022/02/13 11:05:09;;;;;;;5.03;2.13;;;18.60;59.30;;;;;;5013099;28;20220;-48
2022/02/13 11:07:43;;;;;;;2.58;1.80;;;18.60;59.30;;;;;;5013029;28;20220;-51
2022/02/13 11:10:17;;;;;;;2.95;2.10;;;18.60;59.30;;;;;;5013136;28;20201;-57
2022/02/13 11:12:49;;;;;;;3.08;2.08;;;18.60;59.30;;;;;;5013089;28;20261;-52
2022/02/13 11:15:23;;;;;;;3.83;1.98;;;18.60;59.30;;;;;;5012667;28;20204;-48
2022/02/13 11:17:57;;;;;;;3.47;2.08;;;18.60;59.30;;;;;;5052970;22;20223;-54
2022/02/13 11:20:28;;;;;;;3.85;2.03;;;18.60;59.30;;;;;;5053133;28;20256;-54
2022/02/13 11:23:18;;;;;;;3.30;1.70;;;18.60;59.30;;;;;;5052448;28;20223;-55
2022/02/13 11:25:53;;;;;;;3.42;2.00;;;18.60;59.30;;;;;;5052712;28;20257;-53
2022/02/13 11:28:29;;;;;;;2.47;1.80;;;18.60;59.30;;;;;;5052569;28;20211;-52
2022/02/13 11:31:01;;;;;;;2.47;1.70;;;18.60;59.20;;;;;;5046775;28;20195;-56
2022/02/13 11:33:47;;;;;;;3.25;1.90;;;18.60;59.20;;;;;;5015320;28;20259;-53
2022/02/13 11:36:18;;;;;;;2.40;1.77;;;18.60;59.30;;;;;;5012703;28;20196;-53
2022/02/13 11:38:58;;;;;;;2.92;1.85;;;18.60;59.30;;;;;;5012773;28;20207;-52
2022/02/13 11:42:07;;;;;;;3.03;1.88;;;18.60;59.30;;;;;;5012610;28;20220;-54
2022/02/13 11:44:43;;;;;;;3.60;1.90;;;18.60;59.30;;;;;;5012181;28;20770;-53
2022/02/13 11:47:17;;;;;;;2.03;1.52;;;18.60;59.20;;;;;;5025908;28;20215;-50
2022/02/13 11:50:24;;;;;;;2.67;1.70;;;18.60;59.30;;;;;;5032517;28;20262;-54
2022/02/13 11:53:08;;;;;;;2.75;1.30;;;18.60;59.30;;;;;;5032320;28;20307;-55
2022/02/13 11:55:39;;;;;;;2.55;1.77;;;18.50;59.20;;;;;;5032387;28;20208;-52
2022/02/13 11:58:13;;;;;;;3.22;1.67;;;18.60;59.20;;;;;;5032103;28;20623;-55
2022/02/13 12:00:49;;;;;;;3.40;1.83;;;18.50;59.20;;;;;;5031647;28;20286;-53
2022/02/13 12:03:29;;;;;;;3.63;1.90;;;18.50;59.20;;;;;;5031742;28;20279;-52
2022/02/13 12:06:34;;;;;;;2.80;1.60;;;18.50;59.20;;;;;;5031898;28;20294;-57
2022/02/13 12:09:06;;;;;;;3.22;1.42;;;18.50;59.20;;;;;;5032158;28;20195;-56
2022/02/13 12:11:39;;;;;;;3.88;2.00;;;18.50;59.20;;;;;;5032033;28;20208;-56
2022/02/13 12:14:21;;;;;;;3.30;1.80;;;18.50;59.20;;;;;;5031961;28;20188;-52
2022/02/13 12:16:56;;;;;;;2.90;1.90;;;18.50;59.20;;;;;;5031779;28;20227;-50
2022/02/13 12:19:37;;;;;;;2.22;1.40;;;18.50;59.20;;;;;;5031940;28;20200;-53
2022/02/13 12:22:12;;;;;;;6.00;2.03;;;18.40;59.20;;;;;;5031446;28;20703;-56
2022/02/13 12:24:43;;;;;;;2.40;1.40;;;18.50;59.20;;;;;;5030636;28;20935;-54
2022/02/13 12:27:14;;;;;;;2.65;1.50;;;18.50;59.20;;;;;;5027449;28;20212;-51
2022/02/13 12:29:56;;;;;;;2.42;1.42;;;18.50;59.20;;;;;;5031130;28;20250;-54
2022/02/13 12:32:30;;;;;;;2.38;1.67;;;18.50;59.20;;;;;;5030962;28;20200;-52
2022/02/13 12:35:05;;;;;;;2.35;1.55;;;18.50;59.20;;;;;;5031450;28;20219;-57
2022/02/13 12:37:41;;;;;;;2.75;1.67;;;18.50;59.20;;;;;;5031032;28;20224;-56
2022/02/13 12:40:13;;;;;;;2.92;1.60;;;18.50;59.20;;;;;;5031449;28;20259;-56
2022/02/13 12:42:46;;;;;;;2.03;1.35;;;18.40;59.20;;;;;;5031412;28;20427;-52
2022/02/13 12:45:19;;;;;;;2.45;1.67;;;18.50;59.30;;;;;;5031874;28;20242;-55
2022/02/13 12:47:52;;;;;;;2.80;1.65;;;18.50;59.20;;;;;;5031616;28;20222;-54
2022/02/13 12:50:26;;;;;;;2.50;1.70;;;18.40;59.20;;;;;;5031926;28;20734;-56
2022/02/13 12:53:01;;;;;;;3.65;1.48;;;18.40;59.20;;;;;;5031533;28;20235;-54
2022/02/13 12:55:32;;;;;;;4.05;1.88;;;18.40;59.20;;;;;;5031501;28;20253;-53
2022/02/13 12:58:03;;;;;;;2.15;1.35;;;18.40;59.20;;;;;;5030590;28;20212;-57
2022/02/13 13:00:37;;;;;;;2.85;1.58;;;18.40;59.20;;;;;;5030764;28;20199;-55
2022/02/13 13:03:10;;;;;;;2.03;1.40;;;18.40;59.20;;;;;;5030214;28;20286;-59
2022/02/13 13:05:45;;;;;;;2.50;1.70;;;18.40;59.20;;;;;;5030737;28;20200;-59
2022/02/13 13:08:18;;;;;;;2.22;1.60;;;18.40;59.20;;;;;;5030653;28;20247;-57
2022/02/13 13:10:50;;;;;;;2.53;1.38;;;18.40;59.20;;;;;;5030589;28;20253;-57
2022/02/13 13:13:22;;;;;;;2.25;1.35;;;18.40;59.20;;;;;;5030658;28;20246;-56
2022/02/13 13:16:03;;;;;;;2.78;1.50;;;18.40;59.20;;;;;;5030821;28;20200;-58
2022/02/13 13:18:41;;;;;;;2.50;1.40;;;18.40;59.20;;;;;;5011087;28;20246;-56